Zyana K — WDI6527 — position and weather

sailwx.info

Track history (hours):
 
Tides and Currents Weather Stations Pressure Air Temp Water Temp Dewpoint Dewpoint Depression Visibility Wind Speed Wind Dir Waves Ship Positions

Zyana K

Owner: G & H Towing Company, Galveston, TX. More information available from US FCC via Universal Licensing System and Coast Guard Vessel Documentation Center.

Last reported at 2017-Dec-11 16:58 UTC. Time now 2017-Dec-12 21:58 UTC.
Position N 29°43' W 095°15'.

Length 24 m; draft 5.4 m.

Type: Tug. MMSI: 367719610.

Date/timePositionNaut miles runAvg speedWind from/ knotsBaromVisibWave heightAir tempDewpointWater temp
2017-Dec-11 16:58N 29°43' W 095°15'5 1.6
2017-Dec-11 14:07N 29°45' W 095°10'0 3.7
2017-Dec-11 14:00N 29°45' W 095°10'0 0.0
2017-Dec-11 13:29N 29°45' W 095°10'1 2.6
2017-Dec-11 13:00N 29°44' W 095°09'2 3.0
2017-Dec-11 12:28N 29°45' W 095°10'0 0.0
2017-Dec-11 11:55N 29°45' W 095°10'0 0.0
2017-Dec-11 11:28N 29°45' W 095°10'0 0.0
2017-Dec-11 10:49N 29°45' W 095°10'0 0.0
2017-Dec-11 10:28N 29°45' W 095°10'0 0.0
2017-Dec-11 09:58N 29°45' W 095°10'0 0.0
2017-Dec-11 09:22N 29°45' W 095°10'0 0.0
2017-Dec-11 08:58N 29°45' W 095°10'0 0.0
2017-Dec-11 08:13N 29°45' W 095°10'0 0.1
2017-Dec-11 07:11N 29°45' W 095°10'0 0.8
2017-Dec-11 06:54N 29°45' W 095°10'3 4.1
2017-Dec-11 06:13N 29°44' W 095°07'0 0.1
2017-Dec-11 04:19N 29°45' W 095°07'3 2.0
2017-Dec-11 02:48N 29°44' W 095°03'2 3.9
2017-Dec-11 02:24N 29°44' W 095°01'1 3.3
2017-Dec-11 02:00N 29°42' W 095°01'0 0.0
2017-Dec-11 00:16N 29°42' W 095°01'1 5.0
2017-Dec-11 00:00N 29°44' W 095°01'1 1.8
2017-Dec-10 23:19N 29°42' W 095°01'0 0.1
2017-Dec-10 21:36N 29°42' W 095°01'1 2.7
2017-Dec-10 21:07N 29°44' W 095°01'0 0.1
2017-Dec-10 21:00N 29°44' W 095°01'1 1.4
2017-Dec-10 20:04N 29°42' W 095°01'0 0.0
2017-Dec-10 19:41N 29°42' W 095°01'2 8.4
2017-Dec-10 19:30N 29°44' W 095°02'1 1.5
2017-Dec-10 18:40N 29°44' W 095°03'2 8.1
2017-Dec-10 18:23N 29°46' W 095°05'2 0.4
2017-Dec-10 13:41N 29°45' W 095°07'1 4.2
2017-Dec-10 13:28N 29°44' W 095°08'0 0.2
2017-Dec-10 12:12N 29°44' W 095°08'2 8.1
2017-Dec-10 12:00N 29°45' W 095°10'2 0.6
2017-Dec-10 07:58N 29°44' W 095°12'2 5.3
2017-Dec-10 07:31N 29°43' W 095°15'0 0.4
2017-Dec-10 07:01N 29°43' W 095°14'2 4.5
2017-Dec-10 06:30N 29°44' W 095°12'0 0.1
2017-Dec-10 06:00N 29°44' W 095°12'0 0.0
2017-Dec-10 04:27N 29°44' W 095°12'1 1.0
2017-Dec-10 03:23N 29°43' W 095°13'0 0.1
2017-Dec-10 03:00N 29°43' W 095°13'0 0.0
2017-Dec-09 23:41N 29°43' W 095°13'2 8.3
2017-Dec-09 23:28N 29°43' W 095°15'2 0.4
2017-Dec-09 19:10N 29°44' W 095°17'1 6.3
2017-Dec-09 19:00N 29°44' W 095°16'2 1.4
2017-Dec-09 17:29N 29°43' W 095°13'2 4.9
2017-Dec-09 17:00N 29°44' W 095°16'1 1.6
2017-Dec-09 16:28N 29°43' W 095°15'2 4.5
2017-Dec-09 15:58N 29°44' W 095°13'3 4.7
2017-Dec-09 15:25N 29°45' W 095°10'3 5.2
2017-Dec-09 14:55N 29°44' W 095°07'0 0.1
2017-Dec-09 14:20N 29°44' W 095°07'0 0.0
2017-Dec-09 13:50N 29°44' W 095°07'0 0.0
2017-Dec-09 13:26N 29°44' W 095°07'0 0.4
2017-Dec-09 12:55N 29°44' W 095°07'0 0.0
2017-Dec-09 12:28N 29°44' W 095°07'0 0.0
2017-Dec-09 11:55N 29°44' W 095°07'0 0.0
2017-Dec-09 11:28N 29°44' W 095°07'0 0.0
2017-Dec-09 10:58N 29°44' W 095°07'1 1.1
2017-Dec-09 10:27N 29°45' W 095°06'0 0.2
2017-Dec-09 09:47N 29°45' W 095°06'1 2.9
2017-Dec-09 09:30N 29°45' W 095°06'1 0.5
2017-Dec-09 06:32N 29°44' W 095°07'0 8.4
2017-Dec-09 06:30N 29°44' W 095°07'4 8.2
2017-Dec-09 06:00N 29°45' W 095°12'3 6.4
2017-Dec-09 05:29N 29°43' W 095°15'1 2.2
2017-Dec-09 05:00N 29°44' W 095°14'3 5.5
2017-Dec-09 04:28N 29°45' W 095°11'3 6.6
2017-Dec-09 03:57N 29°44' W 095°07'2 0.4
2017-Dec-08 23:23N 29°46' W 095°05'2 4.5
2017-Dec-08 23:00N 29°44' W 095°07'0 0.0
2017-Dec-08 22:29N 29°44' W 095°07'0 0.0
2017-Dec-08 21:56N 29°44' W 095°07'0 0.0
2017-Dec-08 21:17N 29°44' W 095°07'0 0.0
2017-Dec-08 20:56N 29°44' W 095°07'0 0.0
2017-Dec-08 20:30N 29°44' W 095°07'2 0.6
2017-Dec-08 17:50N 29°46' W 095°05'4 1.0
2017-Dec-08 13:54N 29°44' W 095°01'3 5.1
2017-Dec-08 13:24N 29°42' W 094°59'1 0.6
2017-Dec-08 12:21N 29°41' W 094°59'3 9.7
2017-Dec-08 11:59N 29°38' W 094°58'3 7.3
2017-Dec-08 11:30N 29°37' W 095°01'0 0.0
2017-Dec-08 11:00N 29°37' W 095°01'0 0.4
2017-Dec-08 10:27N 29°37' W 095°02'0 0.0
2017-Dec-08 10:00N 29°37' W 095°02'0 0.0
2017-Dec-08 09:30N 29°37' W 095°02'0 0.0
2017-Dec-08 09:00N 29°37' W 095°02'0 0.0
2017-Dec-08 08:31N 29°37' W 095°02'0 0.0
2017-Dec-08 08:01N 29°37' W 095°02'1 2.4
2017-Dec-08 07:31N 29°37' W 095°00'1 0.4
2017-Dec-08 06:10N 29°37' W 094°59'0 2.9
2017-Dec-08 06:00N 29°37' W 094°59'4 7.2
2017-Dec-08 05:31N 29°40' W 094°59'3 2.1
2017-Dec-08 03:53N 29°43' W 095°01'1 0.2
2017-Dec-08 00:22N 29°42' W 095°01'1 1.8
2017-Dec-07 23:39N 29°44' W 095°01'1 3.0
2017-Dec-07 23:22N 29°43' W 095°01'0 0.6
2017-Dec-07 22:35N 29°42' W 095°01'0 0.0
2017-Dec-07 21:25N 29°42' W 095°01'1 0.4
2017-Dec-07 19:05N 29°43' W 095°01'1 6.7
2017-Dec-07 19:00N 29°43' W 095°01'2 4.7
2017-Dec-07 18:30N 29°41' W 094°59'0 0.0
2017-Dec-07 16:51N 29°41' W 094°59'0 0.0
2017-Dec-07 16:30N 29°41' W 094°59'0 0.0
2017-Dec-07 15:04N 29°41' W 094°59'0 0.4
2017-Dec-07 15:00N 29°41' W 094°59'1 1.7
2017-Dec-07 14:30N 29°41' W 095°00'0 1.0
2017-Dec-07 14:00N 29°41' W 094°60'0 0.1
2017-Dec-07 13:30N 29°41' W 094°60'0 0.1
2017-Dec-07 13:00N 29°41' W 094°59'3 6.4
2017-Dec-07 12:29N 29°44' W 095°02'4 7.2
2017-Dec-07 11:52N 29°44' W 095°07'0 0.4
2017-Dec-07 11:05N 29°44' W 095°07'0 2.4
2017-Dec-07 10:58N 29°44' W 095°07'5 3.1
2017-Dec-07 09:13N 29°43' W 095°01'0 1.8
2017-Dec-07 08:59N 29°42' W 095°01'0 0.0
2017-Dec-07 06:57N 29°42' W 095°01'0 0.0
2017-Dec-07 02:24N 29°42' W 095°01'5 9.3
2017-Dec-07 01:50N 29°38' W 094°58'2 7.4
2017-Dec-07 01:30N 29°37' W 095°00'1 2.1
2017-Dec-07 01:00N 29°37' W 095°01'1 1.3
2017-Dec-07 00:30N 29°37' W 095°01'1 1.0
2017-Dec-07 00:00N 29°37' W 095°00'3 5.5
2017-Dec-06 23:30N 29°39' W 094°58'2 5.0
2017-Dec-06 23:00N 29°41' W 094°59'  
2017-Dec-04 10:08N 29°44' W 095°16'0 0.0
2017-Dec-04 09:59N 29°44' W 095°16'0 0.0
2017-Dec-04 09:26N 29°44' W 095°16'0 0.0
2017-Dec-04 08:59N 29°44' W 095°16'0 0.0
2017-Dec-04 08:23N 29°44' W 095°16'0 0.0
2017-Dec-04 07:59N 29°44' W 095°16'0 0.0
2017-Dec-04 07:23N 29°44' W 095°16'0 0.0
2017-Dec-04 06:59N 29°44' W 095°16'0 0.0
2017-Dec-04 06:26N 29°44' W 095°16'0 0.0
2017-Dec-04 05:59N 29°44' W 095°16'0 0.0
2017-Dec-04 05:20N 29°44' W 095°16'0 0.0
2017-Dec-04 04:56N 29°44' W 095°16'0 0.0
2017-Dec-04 04:26N 29°44' W 095°16'0 0.0
2017-Dec-04 03:56N 29°44' W 095°16'0 0.0
2017-Dec-04 03:14N 29°44' W 095°16'0 0.0
2017-Dec-04 02:59N 29°44' W 095°16'0 0.0
2017-Dec-04 02:29N 29°44' W 095°16'0 0.0
2017-Dec-04 01:56N 29°44' W 095°16'0 0.0
2017-Dec-04 01:23N 29°44' W 095°16'0 0.0
2017-Dec-04 00:50N 29°44' W 095°16'0 0.1
2017-Dec-04 00:30N 29°44' W 095°16'0 0.0
2017-Dec-03 23:54N 29°44' W 095°16'0 0.9
2017-Dec-03 23:28N 29°44' W 095°17'2 1.1
2017-Dec-03 21:13N 29°44' W 095°14'3 8.4
2017-Dec-03 20:55N 29°45' W 095°11'5 4.1
2017-Dec-03 19:38N 29°46' W 095°05'0 1.2
2017-Dec-03 19:28N 29°46' W 095°05'2 0.6
2017-Dec-03 16:34N 29°45' W 095°06'1 4.4
2017-Dec-03 16:19N 29°44' W 095°08'1 0.2
2017-Dec-03 10:58N 29°44' W 095°07'0 0.0
2017-Dec-03 06:13N 29°44' W 095°07'0 0.0
2017-Dec-03 05:34N 29°44' W 095°07'0 0.0
2017-Dec-03 05:04N 29°44' W 095°07'0 0.1
2017-Dec-03 05:00N 29°44' W 095°07'0 0.5
2017-Dec-03 04:26N 29°44' W 095°07'0 0.7
2017-Dec-03 04:00N 29°44' W 095°07'3 0.5
2017-Dec-02 21:41N 29°45' W 095°04'2 7.1
2017-Dec-02 21:23N 29°45' W 095°06'0 0.3
2017-Dec-02 20:57N 29°45' W 095°07'0 0.0
2017-Dec-02 20:26N 29°45' W 095°07'0 0.0
2017-Dec-02 19:57N 29°45' W 095°07'0 0.0
2017-Dec-02 19:30N 29°45' W 095°07'0 0.0
2017-Dec-02 19:00N 29°45' W 095°07'0 0.0
2017-Dec-02 18:30N 29°44' W 095°07'0 0.0
2017-Dec-02 17:02N 29°44' W 095°07'0 0.1
2017-Dec-02 16:48N 29°45' W 095°07'0 0.0
2017-Dec-02 15:58N 29°45' W 095°07'0 0.0
2017-Dec-02 15:23N 29°45' W 095°07'0 0.0
2017-Dec-02 13:04N 29°45' W 095°07'0 0.0
2017-Dec-02 12:55N 29°45' W 095°07'0 0.0
2017-Dec-02 12:07N 29°45' W 095°07'0 0.0
2017-Dec-02 11:59N 29°45' W 095°07'0 0.0
2017-Dec-02 11:26N 29°45' W 095°07'0 0.0
2017-Dec-02 10:40N 29°45' W 095°07'0 0.0
2017-Dec-02 10:23N 29°45' W 095°07'0 0.0
2017-Dec-02 09:44N 29°45' W 095°07'0 0.0
2017-Dec-02 09:28N 29°45' W 095°07'0 0.0
2017-Dec-02 08:55N 29°45' W 095°07'0 0.0
2017-Dec-02 08:25N 29°45' W 095°07'0 0.0
2017-Dec-02 07:49N 29°45' W 095°07'0 0.0
2017-Dec-02 07:28N 29°45' W 095°07'0 0.0
2017-Dec-02 06:58N 29°45' W 095°07'0 0.0
2017-Dec-02 06:25N 29°45' W 095°07'0 0.0
2017-Dec-02 05:58N 29°45' W 095°07'0 0.0
2017-Dec-02 05:25N 29°45' W 095°07'0 0.0
2017-Dec-02 04:55N 29°45' W 095°07'0 0.0
2017-Dec-02 04:25N 29°45' W 095°07'0 0.0
2017-Dec-02 03:58N 29°45' W 095°07'0 0.0
2017-Dec-02 01:22N 29°45' W 095°07'0 0.0
2017-Dec-02 00:58N 29°45' W 095°07'0 0.0
2017-Dec-02 00:25N 29°45' W 095°07'0 0.0
2017-Dec-01 23:55N 29°45' W 095°07'0 0.0
2017-Dec-01 23:07N 29°45' W 095°07'0 0.0
2017-Dec-01 20:53N 29°45' W 095°07'5 5.8
2017-Dec-01 19:58N 29°42' W 095°01'5 8.7
2017-Dec-01 19:25N 29°46' W 095°05'  
Track history (hours):
 
Tides and Currents Weather Stations Pressure Air Temp Water Temp Dewpoint Dewpoint Depression Visibility Wind Speed Wind Dir Waves Ship Positions

Zyana K

Owner: G & H Towing Company, Galveston, TX. More information available from US FCC via Universal Licensing System and Coast Guard Vessel Documentation Center.

Last reported at 2017-Dec-11 16:58 UTC. Time now 2017-Dec-12 21:58 UTC.
Position N 29°43' W 095°15'.

Length 24 m; draft 5.4 m.

Type: Tug. MMSI: 367719610.

Date/timePositionNaut miles runAvg speedWind from/ knotsBaromVisibWave heightAir tempDewpointWater temp
2017-Dec-11 16:58N 29°43' W 095°15'5 1.6
2017-Dec-11 14:07N 29°45' W 095°10'0 3.7
2017-Dec-11 14:00N 29°45' W 095°10'0 0.0
2017-Dec-11 13:29N 29°45' W 095°10'1 2.6
2017-Dec-11 13:00N 29°44' W 095°09'2 3.0
2017-Dec-11 12:28N 29°45' W 095°10'0 0.0
2017-Dec-11 11:55N 29°45' W 095°10'0 0.0
2017-Dec-11 11:28N 29°45' W 095°10'0 0.0
2017-Dec-11 10:49N 29°45' W 095°10'0 0.0
2017-Dec-11 10:28N 29°45' W 095°10'0 0.0
2017-Dec-11 09:58N 29°45' W 095°10'0 0.0
2017-Dec-11 09:22N 29°45' W 095°10'0 0.0
2017-Dec-11 08:58N 29°45' W 095°10'0 0.0
2017-Dec-11 08:13N 29°45' W 095°10'0 0.1
2017-Dec-11 07:11N 29°45' W 095°10'0 0.8
2017-Dec-11 06:54N 29°45' W 095°10'3 4.1
2017-Dec-11 06:13N 29°44' W 095°07'0 0.1
2017-Dec-11 04:19N 29°45' W 095°07'3 2.0
2017-Dec-11 02:48N 29°44' W 095°03'2 3.9
2017-Dec-11 02:24N 29°44' W 095°01'1 3.3
2017-Dec-11 02:00N 29°42' W 095°01'0 0.0
2017-Dec-11 00:16N 29°42' W 095°01'1 5.0
2017-Dec-11 00:00N 29°44' W 095°01'1 1.8
2017-Dec-10 23:19N 29°42' W 095°01'0 0.1
2017-Dec-10 21:36N 29°42' W 095°01'1 2.7
2017-Dec-10 21:07N 29°44' W 095°01'0 0.1
2017-Dec-10 21:00N 29°44' W 095°01'1 1.4
2017-Dec-10 20:04N 29°42' W 095°01'0 0.0
2017-Dec-10 19:41N 29°42' W 095°01'2 8.4
2017-Dec-10 19:30N 29°44' W 095°02'1 1.5
2017-Dec-10 18:40N 29°44' W 095°03'2 8.1
2017-Dec-10 18:23N 29°46' W 095°05'2 0.4
2017-Dec-10 13:41N 29°45' W 095°07'1 4.2
2017-Dec-10 13:28N 29°44' W 095°08'0 0.2
2017-Dec-10 12:12N 29°44' W 095°08'2 8.1
2017-Dec-10 12:00N 29°45' W 095°10'2 0.6
2017-Dec-10 07:58N 29°44' W 095°12'2 5.3
2017-Dec-10 07:31N 29°43' W 095°15'0 0.4
2017-Dec-10 07:01N 29°43' W 095°14'2 4.5
2017-Dec-10 06:30N 29°44' W 095°12'0 0.1
2017-Dec-10 06:00N 29°44' W 095°12'0 0.0
2017-Dec-10 04:27N 29°44' W 095°12'1 1.0
2017-Dec-10 03:23N 29°43' W 095°13'0 0.1
2017-Dec-10 03:00N 29°43' W 095°13'0 0.0
2017-Dec-09 23:41N 29°43' W 095°13'2 8.3
2017-Dec-09 23:28N 29°43' W 095°15'2 0.4
2017-Dec-09 19:10N 29°44' W 095°17'1 6.3
2017-Dec-09 19:00N 29°44' W 095°16'2 1.4
2017-Dec-09 17:29N 29°43' W 095°13'2 4.9
2017-Dec-09 17:00N 29°44' W 095°16'1 1.6
2017-Dec-09 16:28N 29°43' W 095°15'2 4.5
2017-Dec-09 15:58N 29°44' W 095°13'3 4.7
2017-Dec-09 15:25N 29°45' W 095°10'3 5.2
2017-Dec-09 14:55N 29°44' W 095°07'0 0.1
2017-Dec-09 14:20N 29°44' W 095°07'0 0.0
2017-Dec-09 13:50N 29°44' W 095°07'0 0.0
2017-Dec-09 13:26N 29°44' W 095°07'0 0.4
2017-Dec-09 12:55N 29°44' W 095°07'0 0.0
2017-Dec-09 12:28N 29°44' W 095°07'0 0.0
2017-Dec-09 11:55N 29°44' W 095°07'0 0.0
2017-Dec-09 11:28N 29°44' W 095°07'0 0.0
2017-Dec-09 10:58N 29°44' W 095°07'1 1.1
2017-Dec-09 10:27N 29°45' W 095°06'0 0.2
2017-Dec-09 09:47N 29°45' W 095°06'1 2.9
2017-Dec-09 09:30N 29°45' W 095°06'1 0.5
2017-Dec-09 06:32N 29°44' W 095°07'0 8.4
2017-Dec-09 06:30N 29°44' W 095°07'4 8.2
2017-Dec-09 06:00N 29°45' W 095°12'3 6.4
2017-Dec-09 05:29N 29°43' W 095°15'1 2.2
2017-Dec-09 05:00N 29°44' W 095°14'3 5.5
2017-Dec-09 04:28N 29°45' W 095°11'3 6.6
2017-Dec-09 03:57N 29°44' W 095°07'2 0.4
2017-Dec-08 23:23N 29°46' W 095°05'2 4.5
2017-Dec-08 23:00N 29°44' W 095°07'0 0.0
2017-Dec-08 22:29N 29°44' W 095°07'0 0.0
2017-Dec-08 21:56N 29°44' W 095°07'0 0.0
2017-Dec-08 21:17N 29°44' W 095°07'0 0.0
2017-Dec-08 20:56N 29°44' W 095°07'0 0.0
2017-Dec-08 20:30N 29°44' W 095°07'2 0.6
2017-Dec-08 17:50N 29°46' W 095°05'4 1.0
2017-Dec-08 13:54N 29°44' W 095°01'3 5.1
2017-Dec-08 13:24N 29°42' W 094°59'1 0.6
2017-Dec-08 12:21N 29°41' W 094°59'3 9.7
2017-Dec-08 11:59N 29°38' W 094°58'3 7.3
2017-Dec-08 11:30N 29°37' W 095°01'0 0.0
2017-Dec-08 11:00N 29°37' W 095°01'0 0.4
2017-Dec-08 10:27N 29°37' W 095°02'0 0.0
2017-Dec-08 10:00N 29°37' W 095°02'0 0.0
2017-Dec-08 09:30N 29°37' W 095°02'0 0.0
2017-Dec-08 09:00N 29°37' W 095°02'0 0.0
2017-Dec-08 08:31N 29°37' W 095°02'0 0.0
2017-Dec-08 08:01N 29°37' W 095°02'1 2.4
2017-Dec-08 07:31N 29°37' W 095°00'1 0.4
2017-Dec-08 06:10N 29°37' W 094°59'0 2.9
2017-Dec-08 06:00N 29°37' W 094°59'4 7.2
2017-Dec-08 05:31N 29°40' W 094°59'3 2.1
2017-Dec-08 03:53N 29°43' W 095°01'1 0.2
2017-Dec-08 00:22N 29°42' W 095°01'1 1.8
2017-Dec-07 23:39N 29°44' W 095°01'1 3.0
2017-Dec-07 23:22N 29°43' W 095°01'0 0.6
2017-Dec-07 22:35N 29°42' W 095°01'0 0.0
2017-Dec-07 21:25N 29°42' W 095°01'1 0.4
2017-Dec-07 19:05N 29°43' W 095°01'1 6.7
2017-Dec-07 19:00N 29°43' W 095°01'2 4.7
2017-Dec-07 18:30N 29°41' W 094°59'0 0.0
2017-Dec-07 16:51N 29°41' W 094°59'0 0.0
2017-Dec-07 16:30N 29°41' W 094°59'0 0.0
2017-Dec-07 15:04N 29°41' W 094°59'0 0.4
2017-Dec-07 15:00N 29°41' W 094°59'1 1.7
2017-Dec-07 14:30N 29°41' W 095°00'0 1.0
2017-Dec-07 14:00N 29°41' W 094°60'0 0.1
2017-Dec-07 13:30N 29°41' W 094°60'0 0.1
2017-Dec-07 13:00N 29°41' W 094°59'3 6.4
2017-Dec-07 12:29N 29°44' W 095°02'4 7.2
2017-Dec-07 11:52N 29°44' W 095°07'0 0.4
2017-Dec-07 11:05N 29°44' W 095°07'0 2.4
2017-Dec-07 10:58N 29°44' W 095°07'5 3.1
2017-Dec-07 09:13N 29°43' W 095°01'0 1.8
2017-Dec-07 08:59N 29°42' W 095°01'0 0.0
2017-Dec-07 06:57N 29°42' W 095°01'0 0.0
2017-Dec-07 02:24N 29°42' W 095°01'5 9.3
2017-Dec-07 01:50N 29°38' W 094°58'2 7.4
2017-Dec-07 01:30N 29°37' W 095°00'1 2.1
2017-Dec-07 01:00N 29°37' W 095°01'1 1.3
2017-Dec-07 00:30N 29°37' W 095°01'1 1.0
2017-Dec-07 00:00N 29°37' W 095°00'3 5.5
2017-Dec-06 23:30N 29°39' W 094°58'2 5.0
2017-Dec-06 23:00N 29°41' W 094°59'  
2017-Dec-04 10:08N 29°44' W 095°16'0 0.0
2017-Dec-04 09:59N 29°44' W 095°16'0 0.0
2017-Dec-04 09:26N 29°44' W 095°16'0 0.0
2017-Dec-04 08:59N 29°44' W 095°16'0 0.0
2017-Dec-04 08:23N 29°44' W 095°16'0 0.0
2017-Dec-04 07:59N 29°44' W 095°16'0 0.0
2017-Dec-04 07:23N 29°44' W 095°16'0 0.0
2017-Dec-04 06:59N 29°44' W 095°16'0 0.0
2017-Dec-04 06:26N 29°44' W 095°16'0 0.0
2017-Dec-04 05:59N 29°44' W 095°16'0 0.0
2017-Dec-04 05:20N 29°44' W 095°16'0 0.0
2017-Dec-04 04:56N 29°44' W 095°16'0 0.0
2017-Dec-04 04:26N 29°44' W 095°16'0 0.0
2017-Dec-04 03:56N 29°44' W 095°16'0 0.0
2017-Dec-04 03:14N 29°44' W 095°16'0 0.0
2017-Dec-04 02:59N 29°44' W 095°16'0 0.0
2017-Dec-04 02:29N 29°44' W 095°16'0 0.0
2017-Dec-04 01:56N 29°44' W 095°16'0 0.0
2017-Dec-04 01:23N 29°44' W 095°16'0 0.0
2017-Dec-04 00:50N 29°44' W 095°16'0 0.1
2017-Dec-04 00:30N 29°44' W 095°16'0 0.0
2017-Dec-03 23:54N 29°44' W 095°16'0 0.9
2017-Dec-03 23:28N 29°44' W 095°17'2 1.1
2017-Dec-03 21:13N 29°44' W 095°14'3 8.4
2017-Dec-03 20:55N 29°45' W 095°11'5 4.1
2017-Dec-03 19:38N 29°46' W 095°05'0 1.2
2017-Dec-03 19:28N 29°46' W 095°05'2 0.6
2017-Dec-03 16:34N 29°45' W 095°06'1 4.4
2017-Dec-03 16:19N 29°44' W 095°08'1 0.2
2017-Dec-03 10:58N 29°44' W 095°07'0 0.0
2017-Dec-03 06:13N 29°44' W 095°07'0 0.0
2017-Dec-03 05:34N 29°44' W 095°07'0 0.0
2017-Dec-03 05:04N 29°44' W 095°07'0 0.1
2017-Dec-03 05:00N 29°44' W 095°07'0 0.5
2017-Dec-03 04:26N 29°44' W 095°07'0 0.7
2017-Dec-03 04:00N 29°44' W 095°07'3 0.5
2017-Dec-02 21:41N 29°45' W 095°04'2 7.1
2017-Dec-02 21:23N 29°45' W 095°06'0 0.3
2017-Dec-02 20:57N 29°45' W 095°07'0 0.0
2017-Dec-02 20:26N 29°45' W 095°07'0 0.0
2017-Dec-02 19:57N 29°45' W 095°07'0 0.0
2017-Dec-02 19:30N 29°45' W 095°07'0 0.0
2017-Dec-02 19:00N 29°45' W 095°07'0 0.0
2017-Dec-02 18:30N 29°44' W 095°07'0 0.0
2017-Dec-02 17:02N 29°44' W 095°07'0 0.1
2017-Dec-02 16:48N 29°45' W 095°07'0 0.0
2017-Dec-02 15:58N 29°45' W 095°07'0 0.0
2017-Dec-02 15:23N 29°45' W 095°07'0 0.0
2017-Dec-02 13:04N 29°45' W 095°07'0 0.0
2017-Dec-02 12:55N 29°45' W 095°07'0 0.0
2017-Dec-02 12:07N 29°45' W 095°07'0 0.0
2017-Dec-02 11:59N 29°45' W 095°07'0 0.0
2017-Dec-02 11:26N 29°45' W 095°07'0 0.0
2017-Dec-02 10:40N 29°45' W 095°07'0 0.0
2017-Dec-02 10:23N 29°45' W 095°07'0 0.0
2017-Dec-02 09:44N 29°45' W 095°07'0 0.0
2017-Dec-02 09:28N 29°45' W 095°07'0 0.0
2017-Dec-02 08:55N 29°45' W 095°07'0 0.0
2017-Dec-02 08:25N 29°45' W 095°07'0 0.0
2017-Dec-02 07:49N 29°45' W 095°07'0 0.0
2017-Dec-02 07:28N 29°45' W 095°07'0 0.0
2017-Dec-02 06:58N 29°45' W 095°07'0 0.0
2017-Dec-02 06:25N 29°45' W 095°07'0 0.0
2017-Dec-02 05:58N 29°45' W 095°07'0 0.0
2017-Dec-02 05:25N 29°45' W 095°07'0 0.0
2017-Dec-02 04:55N 29°45' W 095°07'0 0.0
2017-Dec-02 04:25N 29°45' W 095°07'0 0.0
2017-Dec-02 03:58N 29°45' W 095°07'0 0.0
2017-Dec-02 01:22N 29°45' W 095°07'0 0.0
2017-Dec-02 00:58N 29°45' W 095°07'0 0.0
2017-Dec-02 00:25N 29°45' W 095°07'0 0.0
2017-Dec-01 23:55N 29°45' W 095°07'0 0.0
2017-Dec-01 23:07N 29°45' W 095°07'0 0.0
2017-Dec-01 20:53N 29°45' W 095°07'5 5.8
2017-Dec-01 19:58N 29°42' W 095°01'5 8.7
2017-Dec-01 19:25N 29°46' W 095°05'  

Dump ship's entire track history